sensor_id;sensor_type;location;lat;lon;timestamp;pressure;altitude;pressure_sealevel;temperature;humidity
8286;BME280;4181;43.416;24.598;2023-01-26T00:01:20;100968.06;;;2.56;100.00
8286;BME280;4181;43.416;24.598;2023-01-26T00:03:46;100962.09;;;2.16;100.00
8286;BME280;4181;43.416;24.598;2023-01-26T00:06:15;100947.84;;;2.07;100.00
8286;BME280;4181;43.416;24.598;2023-01-26T00:08:46;100935.03;;;2.40;100.00
8286;BME280;4181;43.416;24.598;2023-01-26T00:11:15;100924.66;;;2.29;100.00
8286;BME280;4181;43.416;24.598;2023-01-26T00:13:41;100910.59;;;2.19;100.00
8286;BME280;4181;43.416;24.598;2023-01-26T00:16:09;100910.81;;;2.09;100.00
8286;BME280;4181;43.416;24.598;2023-01-26T00:18:36;100897.72;;;2.29;100.00
8286;BME280;4181;43.416;24.598;2023-01-26T00:21:03;100901.38;;;2.13;100.00
8286;BME280;4181;43.416;24.598;2023-01-26T00:23:30;100886.66;;;2.24;100.00
8286;BME280;4181;43.416;24.598;2023-01-26T00:25:56;100893.72;;;2.25;100.00
8286;BME280;4181;43.416;24.598;2023-01-26T00:28:22;100898.16;;;2.18;100.00
8286;BME280;4181;43.416;24.598;2023-01-26T00:30:47;100894.78;;;2.16;100.00
8286;BME280;4181;43.416;24.598;2023-01-26T00:33:13;100886.06;;;2.14;100.00
8286;BME280;4181;43.416;24.598;2023-01-26T00:35:39;100883.03;;;2.17;100.00
8286;BME280;4181;43.416;24.598;2023-01-26T00:38:11;100874.97;;;2.17;100.00
8286;BME280;4181;43.416;24.598;2023-01-26T00:40:37;100878.53;;;2.32;100.00
8286;BME280;4181;43.416;24.598;2023-01-26T00:43:03;100859.69;;;2.32;100.00
8286;BME280;4181;43.416;24.598;2023-01-26T00:45:28;100870.38;;;2.17;100.00
8286;BME280;4181;43.416;24.598;2023-01-26T00:47:54;100877.94;;;2.22;100.00
8286;BME280;4181;43.416;24.598;2023-01-26T00:50:21;100859.97;;;2.14;100.00
8286;BME280;4181;43.416;24.598;2023-01-26T00:52:47;100878.66;;;2.16;100.00
8286;BME280;4181;43.416;24.598;2023-01-26T00:55:12;100868.59;;;2.10;100.00
8286;BME280;4181;43.416;24.598;2023-01-26T00:57:38;100866.56;;;2.12;100.00
8286;BME280;4181;43.416;24.598;2023-01-26T01:00:04;100850.06;;;2.15;100.00
8286;BME280;4181;43.416;24.598;2023-01-26T01:02:31;100856.03;;;2.25;100.00
8286;BME280;4181;43.416;24.598;2023-01-26T01:04:57;100854.72;;;2.21;100.00
8286;BME280;4181;43.416;24.598;2023-01-26T01:07:23;100855.38;;;2.23;100.00
8286;BME280;4181;43.416;24.598;2023-01-26T01:09:48;100864.53;;;2.36;100.00
8286;BME280;4181;43.416;24.598;2023-01-26T01:12:14;100867.59;;;2.33;100.00
8286;BME280;4181;43.416;24.598;2023-01-26T01:14:39;100875.19;;;2.30;100.00
8286;BME280;4181;43.416;24.598;2023-01-26T01:17:05;100873.00;;;2.48;100.00
8286;BME280;4181;43.416;24.598;2023-01-26T01:19:30;100881.75;;;2.50;100.00
8286;BME280;4181;43.416;24.598;2023-01-26T01:21:56;100886.31;;;2.27;100.00
8286;BME280;4181;43.416;24.598;2023-01-26T01:24:21;100873.75;;;2.42;100.00
8286;BME280;4181;43.416;24.598;2023-01-26T01:26:47;100872.28;;;2.54;100.00
8286;BME280;4181;43.416;24.598;2023-01-26T01:29:13;100877.97;;;2.59;100.00
8286;BME280;4181;43.416;24.598;2023-01-26T01:31:38;100884.97;;;2.68;100.00
8286;BME280;4181;43.416;24.598;2023-01-26T01:34:05;100883.16;;;2.60;100.00
8286;BME280;4181;43.416;24.598;2023-01-26T01:36:30;100886.41;;;2.56;100.00
8286;BME280;4181;43.416;24.598;2023-01-26T01:38:56;100887.91;;;2.58;100.00
8286;BME280;4181;43.416;24.598;2023-01-26T01:41:21;100901.59;;;2.72;100.00
8286;BME280;4181;43.416;24.598;2023-01-26T01:43:48;100888.16;;;2.86;100.00
8286;BME280;4181;43.416;24.598;2023-01-26T01:46:28;100894.03;;;2.67;100.00
8286;BME280;4181;43.416;24.598;2023-01-26T01:49:18;100890.91;;;2.64;100.00
8286;BME280;4181;43.416;24.598;2023-01-26T01:51:50;100882.66;;;2.42;100.00
8286;BME280;4181;43.416;24.598;2023-01-26T01:54:21;100881.25;;;2.32;100.00
8286;BME280;4181;43.416;24.598;2023-01-26T01:56:52;100859.41;;;2.27;100.00
8286;BME280;4181;43.416;24.598;2023-01-26T01:59:20;100863.03;;;2.34;100.00
8286;BME280;4181;43.416;24.598;2023-01-26T02:01:48;100862.50;;;2.16;100.00
8286;BME280;4181;43.416;24.598;2023-01-26T02:04:15;100853.88;;;2.20;100.00
8286;BME280;4181;43.416;24.598;2023-01-26T02:06:49;100834.88;;;2.22;100.00
8286;BME280;4181;43.416;24.598;2023-01-26T02:09:16;100826.34;;;2.10;100.00
8286;BME280;4181;43.416;24.598;2023-01-26T02:12:05;100825.47;;;2.18;100.00
8286;BME280;4181;43.416;24.598;2023-01-26T02:14:33;100807.00;;;2.15;100.00
8286;BME280;4181;43.416;24.598;2023-01-26T02:16:58;100807.38;;;2.12;100.00
8286;BME280;4181;43.416;24.598;2023-01-26T02:19:59;100795.56;;;2.13;100.00
8286;BME280;4181;43.416;24.598;2023-01-26T02:22:39;100800.78;;;2.14;100.00
8286;BME280;4181;43.416;24.598;2023-01-26T02:25:15;100792.19;;;2.33;100.00
8286;BME280;4181;43.416;24.598;2023-01-26T02:27:44;100794.78;;;2.27;100.00
8286;BME280;4181;43.416;24.598;2023-01-26T02:30:11;100792.31;;;2.40;100.00
8286;BME280;4181;43.416;24.598;2023-01-26T02:32:37;100794.91;;;2.33;100.00
8286;BME280;4181;43.416;24.598;2023-01-26T02:35:03;100798.56;;;2.18;100.00
8286;BME280;4181;43.416;24.598;2023-01-26T02:37:28;100790.97;;;2.36;100.00
8286;BME280;4181;43.416;24.598;2023-01-26T02:40:05;100787.22;;;2.45;100.00
8286;BME280;4181;43.416;24.598;2023-01-26T02:42:33;100801.75;;;2.36;100.00
8286;BME280;4181;43.416;24.598;2023-01-26T02:45:07;100795.59;;;2.27;100.00
8286;BME280;4181;43.416;24.598;2023-01-26T02:47:33;100791.66;;;2.38;100.00
8286;BME280;4181;43.416;24.598;2023-01-26T02:49:59;100797.78;;;2.46;100.00
8286;BME280;4181;43.416;24.598;2023-01-26T02:52:27;100793.81;;;2.57;100.00
8286;BME280;4181;43.416;24.598;2023-01-26T02:54:55;100797.50;;;2.41;100.00
8286;BME280;4181;43.416;24.598;2023-01-26T02:57:39;100800.91;;;2.35;100.00
8286;BME280;4181;43.416;24.598;2023-01-26T03:00:11;100788.09;;;2.37;100.00
8286;BME280;4181;43.416;24.598;2023-01-26T03:02:39;100789.72;;;2.46;100.00
8286;BME280;4181;43.416;24.598;2023-01-26T03:05:05;100789.84;;;2.30;100.00
8286;BME280;4181;43.416;24.598;2023-01-26T03:07:30;100791.81;;;2.22;100.00
8286;BME280;4181;43.416;24.598;2023-01-26T03:09:56;100787.34;;;2.29;100.00
8286;BME280;4181;43.416;24.598;2023-01-26T03:12:23;100775.94;;;2.27;100.00
8286;BME280;4181;43.416;24.598;2023-01-26T03:14:48;100776.28;;;2.24;100.00
8286;BME280;4181;43.416;24.598;2023-01-26T03:17:34;100771.81;;;2.16;100.00
8286;BME280;4181;43.416;24.598;2023-01-26T03:19:59;100772.66;;;2.17;100.00
8286;BME280;4181;43.416;24.598;2023-01-26T03:22:43;100751.06;;;2.54;100.00
8286;BME280;4181;43.416;24.598;2023-01-26T03:25:27;100760.66;;;2.71;100.00
8286;BME280;4181;43.416;24.598;2023-01-26T03:28:11;100765.47;;;2.61;100.00
8286;BME280;4181;43.416;24.598;2023-01-26T03:30:38;100769.59;;;2.72;100.00
8286;BME280;4181;43.416;24.598;2023-01-26T03:33:03;100781.81;;;2.45;100.00
8286;BME280;4181;43.416;24.598;2023-01-26T03:35:29;100765.19;;;2.56;100.00
8286;BME280;4181;43.416;24.598;2023-01-26T03:37:56;100755.47;;;2.70;100.00
8286;BME280;4181;43.416;24.598;2023-01-26T03:40:22;100759.16;;;2.54;100.00
8286;BME280;4181;43.416;24.598;2023-01-26T03:43:07;100757.69;;;2.37;100.00
8286;BME280;4181;43.416;24.598;2023-01-26T03:45:51;100742.81;;;2.41;100.00
8286;BME280;4181;43.416;24.598;2023-01-26T03:48:35;100739.41;;;2.62;100.00
8286;BME280;4181;43.416;24.598;2023-01-26T03:51:19;100744.13;;;2.08;100.00
8286;BME280;4181;43.416;24.598;2023-01-26T03:54:03;100732.28;;;2.17;100.00
8286;BME280;4181;43.416;24.598;2023-01-26T03:56:47;100722.53;;;2.16;100.00
8286;BME280;4181;43.416;24.598;2023-01-26T03:59:12;100709.72;;;2.18;100.00
8286;BME280;4181;43.416;24.598;2023-01-26T04:01:42;100700.56;;;2.41;100.00
8286;BME280;4181;43.416;24.598;2023-01-26T04:04:27;100708.16;;;2.52;100.00
8286;BME280;4181;43.416;24.598;2023-01-26T04:07:11;100711.19;;;2.20;100.00
8286;BME280;4181;43.416;24.598;2023-01-26T04:09:55;100706.03;;;2.48;100.00
8286;BME280;4181;43.416;24.598;2023-01-26T04:12:20;100714.78;;;2.50;100.00
8286;BME280;4181;43.416;24.598;2023-01-26T04:14:45;100698.19;;;1.95;100.00
8286;BME280;4181;43.416;24.598;2023-01-26T04:17:29;100695.84;;;1.92;100.00
8286;BME280;4181;43.416;24.598;2023-01-26T04:20:14;100691.78;;;1.96;100.00
8286;BME280;4181;43.416;24.598;2023-01-26T04:22:57;100692.31;;;1.91;100.00
8286;BME280;4181;43.416;24.598;2023-01-26T04:25:23;100663.50;;;2.00;100.00
8286;BME280;4181;43.416;24.598;2023-01-26T04:27:48;100665.16;;;2.01;100.00
8286;BME280;4181;43.416;24.598;2023-01-26T04:30:14;100648.44;;;1.91;100.00
8286;BME280;4181;43.416;24.598;2023-01-26T04:32:40;100660.59;;;1.87;100.00
8286;BME280;4181;43.416;24.598;2023-01-26T04:35:07;100659.09;;;1.84;100.00
8286;BME280;4181;43.416;24.598;2023-01-26T04:37:33;100658.81;;;1.94;100.00
8286;BME280;4181;43.416;24.598;2023-01-26T04:39:59;100658.38;;;1.90;100.00
8286;BME280;4181;43.416;24.598;2023-01-26T04:42:24;100646.88;;;1.96;100.00
8286;BME280;4181;43.416;24.598;2023-01-26T04:44:51;100640.22;;;2.07;100.00
8286;BME280;4181;43.416;24.598;2023-01-26T04:47:16;100628.50;;;2.00;100.00
8286;BME280;4181;43.416;24.598;2023-01-26T04:49:42;100632.59;;;2.25;100.00
8286;BME280;4181;43.416;24.598;2023-01-26T04:52:07;100646.16;;;2.31;100.00
8286;BME280;4181;43.416;24.598;2023-01-26T04:54:33;100638.44;;;2.14;100.00
8286;BME280;4181;43.416;24.598;2023-01-26T04:56:58;100651.34;;;2.33;100.00
8286;BME280;4181;43.416;24.598;2023-01-26T04:59:24;100634.06;;;2.27;100.00
8286;BME280;4181;43.416;24.598;2023-01-26T05:01:49;100632.31;;;2.20;100.00
8286;BME280;4181;43.416;24.598;2023-01-26T05:04:15;100637.94;;;1.96;100.00
8286;BME280;4181;43.416;24.598;2023-01-26T05:06:40;100632.75;;;1.94;100.00
8286;BME280;4181;43.416;24.598;2023-01-26T05:09:09;100625.06;;;2.06;100.00
8286;BME280;4181;43.416;24.598;2023-01-26T05:11:35;100617.66;;;2.37;100.00
8286;BME280;4181;43.416;24.598;2023-01-26T05:14:00;100629.25;;;2.08;100.00
8286;BME280;4181;43.416;24.598;2023-01-26T05:16:26;100612.53;;;2.13;100.00
8286;BME280;4181;43.416;24.598;2023-01-26T05:18:52;100626.09;;;2.05;100.00
8286;BME280;4181;43.416;24.598;2023-01-26T05:21:18;100635.84;;;2.06;100.00
8286;BME280;4181;43.416;24.598;2023-01-26T05:23:43;100614.22;;;1.99;100.00
8286;BME280;4181;43.416;24.598;2023-01-26T05:26:09;100615.59;;;2.39;100.00
8286;BME280;4181;43.416;24.598;2023-01-26T05:28:34;100603.34;;;2.07;100.00
8286;BME280;4181;43.416;24.598;2023-01-26T05:31:00;100598.72;;;2.16;100.00
8286;BME280;4181;43.416;24.598;2023-01-26T05:33:25;100606.69;;;2.38;100.00
8286;BME280;4181;43.416;24.598;2023-01-26T05:35:51;100609.53;;;2.66;100.00
8286;BME280;4181;43.416;24.598;2023-01-26T05:38:17;100610.19;;;2.68;100.00
8286;BME280;4181;43.416;24.598;2023-01-26T05:40:43;100624.50;;;2.54;100.00
8286;BME280;4181;43.416;24.598;2023-01-26T05:43:09;100621.28;;;2.29;100.00
8286;BME280;4181;43.416;24.598;2023-01-26T05:45:35;100616.72;;;2.30;100.00
8286;BME280;4181;43.416;24.598;2023-01-26T05:48:00;100614.31;;;2.35;100.00
8286;BME280;4181;43.416;24.598;2023-01-26T05:50:26;100589.34;;;2.12;100.00
8286;BME280;4181;43.416;24.598;2023-01-26T05:52:51;100596.47;;;2.34;100.00
8286;BME280;4181;43.416;24.598;2023-01-26T05:55:17;100595.91;;;2.24;100.00
8286;BME280;4181;43.416;24.598;2023-01-26T05:57:42;100595.84;;;2.32;100.00
8286;BME280;4181;43.416;24.598;2023-01-26T06:00:09;100593.16;;;2.32;100.00
8286;BME280;4181;43.416;24.598;2023-01-26T06:02:35;100588.97;;;2.29;100.00
8286;BME280;4181;43.416;24.598;2023-01-26T06:05:00;100598.88;;;2.29;100.00
8286;BME280;4181;43.416;24.598;2023-01-26T06:07:26;100599.44;;;2.39;100.00
8286;BME280;4181;43.416;24.598;2023-01-26T06:09:51;100596.94;;;2.37;100.00
8286;BME280;4181;43.416;24.598;2023-01-26T06:12:18;100608.81;;;2.43;100.00
8286;BME280;4181;43.416;24.598;2023-01-26T06:14:44;100615.78;;;2.52;100.00
8286;BME280;4181;43.416;24.598;2023-01-26T06:17:10;100618.84;;;2.49;100.00
8286;BME280;4181;43.416;24.598;2023-01-26T06:19:36;100621.63;;;2.41;100.00
8286;BME280;4181;43.416;24.598;2023-01-26T06:22:02;100609.56;;;2.51;100.00
8286;BME280;4181;43.416;24.598;2023-01-26T06:24:28;100614.25;;;2.64;100.00
8286;BME280;4181;43.416;24.598;2023-01-26T06:26:54;100631.41;;;2.42;100.00
8286;BME280;4181;43.416;24.598;2023-01-26T06:29:19;100623.94;;;2.44;100.00
8286;BME280;4181;43.416;24.598;2023-01-26T06:31:45;100624.97;;;2.57;100.00
8286;BME280;4181;43.416;24.598;2023-01-26T06:34:10;100617.59;;;2.66;100.00
8286;BME280;4181;43.416;24.598;2023-01-26T06:36:36;100623.00;;;2.66;100.00
8286;BME280;4181;43.416;24.598;2023-01-26T06:39:01;100619.94;;;2.54;100.00
8286;BME280;4181;43.416;24.598;2023-01-26T06:41:27;100624.13;;;2.57;100.00
8286;BME280;4181;43.416;24.598;2023-01-26T06:43:53;100621.53;;;2.49;100.00
8286;BME280;4181;43.416;24.598;2023-01-26T06:46:19;100619.88;;;2.48;100.00
8286;BME280;4181;43.416;24.598;2023-01-26T06:48:45;100617.44;;;2.53;100.00
8286;BME280;4181;43.416;24.598;2023-01-26T06:56:19;100610.00;;;2.70;100.00
8286;BME280;4181;43.416;24.598;2023-01-26T06:58:45;100612.06;;;2.53;100.00
8286;BME280;4181;43.416;24.598;2023-01-26T07:01:19;100606.00;;;2.66;100.00
8286;BME280;4181;43.416;24.598;2023-01-26T07:03:46;100593.31;;;2.45;100.00
8286;BME280;4181;43.416;24.598;2023-01-26T07:06:12;100594.13;;;2.60;100.00
8286;BME280;4181;43.416;24.598;2023-01-26T07:08:39;100585.44;;;2.43;100.00
8286;BME280;4181;43.416;24.598;2023-01-26T07:11:05;100580.19;;;2.56;100.00
8286;BME280;4181;43.416;24.598;2023-01-26T07:13:31;100577.78;;;2.62;100.00
8286;BME280;4181;43.416;24.598;2023-01-26T07:16:03;100566.94;;;2.55;100.00
8286;BME280;4181;43.416;24.598;2023-01-26T07:18:29;100565.94;;;2.41;100.00
8286;BME280;4181;43.416;24.598;2023-01-26T07:20:59;100555.47;;;2.32;100.00
8286;BME280;4181;43.416;24.598;2023-01-26T07:23:25;100535.13;;;2.29;100.00
8286;BME280;4181;43.416;24.598;2023-01-26T07:25:51;100535.19;;;2.36;100.00
8286;BME280;4181;43.416;24.598;2023-01-26T07:28:16;100533.63;;;2.41;100.00
8286;BME280;4181;43.416;24.598;2023-01-26T07:30:41;100526.34;;;2.56;100.00
8286;BME280;4181;43.416;24.598;2023-01-26T07:33:07;100532.00;;;2.83;100.00
8286;BME280;4181;43.416;24.598;2023-01-26T07:35:32;100537.19;;;2.63;100.00
8286;BME280;4181;43.416;24.598;2023-01-26T07:37:58;100534.69;;;2.62;100.00
8286;BME280;4181;43.416;24.598;2023-01-26T07:40:24;100539.09;;;2.48;100.00
8286;BME280;4181;43.416;24.598;2023-01-26T07:42:49;100537.31;;;2.40;100.00
8286;BME280;4181;43.416;24.598;2023-01-26T07:45:15;100526.53;;;2.40;100.00
8286;BME280;4181;43.416;24.598;2023-01-26T07:47:42;100529.25;;;2.40;100.00
8286;BME280;4181;43.416;24.598;2023-01-26T07:50:09;100509.53;;;2.54;100.00
8286;BME280;4181;43.416;24.598;2023-01-26T07:52:35;100506.84;;;2.54;100.00
8286;BME280;4181;43.416;24.598;2023-01-26T07:55:01;100510.00;;;2.58;100.00
8286;BME280;4181;43.416;24.598;2023-01-26T07:57:26;100515.44;;;2.65;100.00
8286;BME280;4181;43.416;24.598;2023-01-26T07:59:52;100510.69;;;2.67;100.00
8286;BME280;4181;43.416;24.598;2023-01-26T08:02:17;100511.38;;;2.54;100.00
8286;BME280;4181;43.416;24.598;2023-01-26T08:04:42;100493.03;;;2.64;100.00
8286;BME280;4181;43.416;24.598;2023-01-26T08:07:08;100491.53;;;2.55;100.00
8286;BME280;4181;43.416;24.598;2023-01-26T08:09:33;100500.06;;;2.58;100.00
8286;BME280;4181;43.416;24.598;2023-01-26T08:12:00;100506.75;;;2.48;100.00
8286;BME280;4181;43.416;24.598;2023-01-26T08:14:25;100491.66;;;2.68;100.00
8286;BME280;4181;43.416;24.598;2023-01-26T08:16:51;100484.16;;;2.85;100.00
8286;BME280;4181;43.416;24.598;2023-01-26T08:19:17;100493.81;;;2.79;100.00
8286;BME280;4181;43.416;24.598;2023-01-26T08:21:42;100497.78;;;2.62;100.00
8286;BME280;4181;43.416;24.598;2023-01-26T08:24:10;100492.16;;;2.57;100.00
8286;BME280;4181;43.416;24.598;2023-01-26T08:26:36;100484.31;;;2.41;100.00
8286;BME280;4181;43.416;24.598;2023-01-26T08:29:02;100476.63;;;2.38;100.00
8286;BME280;4181;43.416;24.598;2023-01-26T08:31:28;100455.41;;;2.49;100.00
8286;BME280;4181;43.416;24.598;2023-01-26T08:33:54;100448.50;;;2.62;100.00
8286;BME280;4181;43.416;24.598;2023-01-26T08:36:20;100459.84;;;2.57;100.00
8286;BME280;4181;43.416;24.598;2023-01-26T08:38:46;100454.69;;;2.41;100.00
8286;BME280;4181;43.416;24.598;2023-01-26T08:41:12;100454.22;;;2.52;100.00
8286;BME280;4181;43.416;24.598;2023-01-26T08:43:38;100455.97;;;2.66;100.00
8286;BME280;4181;43.416;24.598;2023-01-26T08:46:04;100451.38;;;2.60;100.00
8286;BME280;4181;43.416;24.598;2023-01-26T08:48:29;100453.53;;;2.71;100.00
8286;BME280;4181;43.416;24.598;2023-01-26T08:50:58;100446.16;;;2.80;100.00
8286;BME280;4181;43.416;24.598;2023-01-26T08:53:24;100457.91;;;2.72;100.00
8286;BME280;4181;43.416;24.598;2023-01-26T08:55:50;100446.63;;;2.83;100.00
8286;BME280;4181;43.416;24.598;2023-01-26T08:58:15;100455.81;;;2.89;100.00
8286;BME280;4181;43.416;24.598;2023-01-26T09:00:41;100440.00;;;2.86;100.00
8286;BME280;4181;43.416;24.598;2023-01-26T09:03:07;100441.97;;;2.77;100.00
8286;BME280;4181;43.416;24.598;2023-01-26T09:05:37;100438.78;;;2.88;100.00
8286;BME280;4181;43.416;24.598;2023-01-26T09:08:03;100439.94;;;2.79;100.00
8286;BME280;4181;43.416;24.598;2023-01-26T09:10:29;100435.72;;;2.70;100.00
8286;BME280;4181;43.416;24.598;2023-01-26T09:12:58;100436.09;;;2.88;100.00
8286;BME280;4181;43.416;24.598;2023-01-26T09:15:24;100436.16;;;2.95;100.00
8286;BME280;4181;43.416;24.598;2023-01-26T09:17:50;100431.06;;;3.06;100.00
8286;BME280;4181;43.416;24.598;2023-01-26T09:20:16;100442.97;;;3.18;100.00
8286;BME280;4181;43.416;24.598;2023-01-26T09:22:42;100444.63;;;3.19;100.00
8286;BME280;4181;43.416;24.598;2023-01-26T09:25:08;100434.94;;;3.25;100.00
8286;BME280;4181;43.416;24.598;2023-01-26T09:27:33;100440.06;;;3.20;100.00
8286;BME280;4181;43.416;24.598;2023-01-26T09:29:59;100441.13;;;2.98;100.00
8286;BME280;4181;43.416;24.598;2023-01-26T09:32:25;100418.56;;;2.99;100.00
8286;BME280;4181;43.416;24.598;2023-01-26T09:34:50;100409.53;;;3.13;100.00
8286;BME280;4181;43.416;24.598;2023-01-26T09:37:16;100407.91;;;3.18;100.00
8286;BME280;4181;43.416;24.598;2023-01-26T09:39:41;100412.34;;;2.98;100.00
8286;BME280;4181;43.416;24.598;2023-01-26T09:42:20;100406.00;;;3.12;100.00
8286;BME280;4181;43.416;24.598;2023-01-26T09:47:30;100407.72;;;3.20;100.00
8286;BME280;4181;43.416;24.598;2023-01-26T09:50:03;100397.31;;;3.10;100.00
8286;BME280;4181;43.416;24.598;2023-01-26T09:52:38;100402.88;;;3.09;100.00
8286;BME280;4181;43.416;24.598;2023-01-26T09:55:13;100397.78;;;3.20;100.00
8286;BME280;4181;43.416;24.598;2023-01-26T09:57:50;100407.91;;;3.18;100.00
8286;BME280;4181;43.416;24.598;2023-01-26T10:05:46;100385.69;;;3.10;100.00
8286;BME280;4181;43.416;24.598;2023-01-26T10:08:16;100387.59;;;3.22;100.00
8286;BME280;4181;43.416;24.598;2023-01-26T10:10:50;100388.97;;;3.05;100.00
8286;BME280;4181;43.416;24.598;2023-01-26T10:13:19;100377.63;;;3.16;100.00
8286;BME280;4181;43.416;24.598;2023-01-26T10:16:13;100373.00;;;3.04;100.00
8286;BME280;4181;43.416;24.598;2023-01-26T10:21:27;100346.41;;;3.01;100.00
8286;BME280;4181;43.416;24.598;2023-01-26T10:23:57;100332.00;;;3.15;100.00
8286;BME280;4181;43.416;24.598;2023-01-26T10:26:23;100324.66;;;3.36;100.00
8286;BME280;4181;43.416;24.598;2023-01-26T10:28:50;100327.13;;;3.31;100.00
8286;BME280;4181;43.416;24.598;2023-01-26T10:31:19;100335.50;;;3.49;100.00
8286;BME280;4181;43.416;24.598;2023-01-26T10:33:59;100338.16;;;3.43;100.00
8286;BME280;4181;43.416;24.598;2023-01-26T10:36:29;100327.97;;;3.38;100.00
8286;BME280;4181;43.416;24.598;2023-01-26T10:39:04;100315.41;;;3.58;100.00
8286;BME280;4181;43.416;24.598;2023-01-26T10:41:30;100312.44;;;3.40;100.00
8286;BME280;4181;43.416;24.598;2023-01-26T10:44:01;100303.13;;;3.49;100.00
8286;BME280;4181;43.416;24.598;2023-01-26T10:46:35;100303.13;;;3.49;100.00
8286;BME280;4181;43.416;24.598;2023-01-26T10:51:34;100303.16;;;3.56;100.00
8286;BME280;4181;43.416;24.598;2023-01-26T10:54:23;100310.44;;;3.62;100.00
8286;BME280;4181;43.416;24.598;2023-01-26T10:56:55;100311.03;;;3.57;100.00
8286;BME280;4181;43.416;24.598;2023-01-26T10:59:37;100310.88;;;3.65;100.00
8286;BME280;4181;43.416;24.598;2023-01-26T11:04:39;100308.47;;;3.36;100.00
8286;BME280;4181;43.416;24.598;2023-01-26T11:07:24;100296.50;;;3.52;100.00
8286;BME280;4181;43.416;24.598;2023-01-26T11:09:51;100283.69;;;3.60;100.00
8286;BME280;4181;43.416;24.598;2023-01-26T11:12:18;100291.69;;;3.47;100.00
8286;BME280;4181;43.416;24.598;2023-01-26T11:15:01;100271.63;;;3.56;100.00
8286;BME280;4181;43.416;24.598;2023-01-26T11:17:42;100277.44;;;3.60;100.00
8286;BME280;4181;43.416;24.598;2023-01-26T11:20:43;100259.22;;;3.68;100.00
8286;BME280;4181;43.416;24.598;2023-01-26T11:23:57;100261.91;;;3.68;100.00
8286;BME280;4181;43.416;24.598;2023-01-26T11:26:24;100255.50;;;3.82;100.00
8286;BME280;4181;43.416;24.598;2023-01-26T11:43:25;100222.88;;;3.64;100.00
8286;BME280;4181;43.416;24.598;2023-01-26T12:03:04;100204.84;;;4.11;100.00
8286;BME280;4181;43.416;24.598;2023-01-26T12:05:36;100189.91;;;4.15;100.00
8286;BME280;4181;43.416;24.598;2023-01-26T12:08:16;100182.84;;;4.27;100.00
8286;BME280;4181;43.416;24.598;2023-01-26T12:11:21;100177.41;;;4.40;100.00
8286;BME280;4181;43.416;24.598;2023-01-26T12:14:24;100182.41;;;4.30;100.00
8286;BME280;4181;43.416;24.598;2023-01-26T12:22:26;100174.91;;;4.45;100.00
8286;BME280;4181;43.416;24.598;2023-01-26T12:24:56;100168.28;;;4.47;100.00
8286;BME280;4181;43.416;24.598;2023-01-26T12:27:39;100173.06;;;4.26;100.00
8286;BME280;4181;43.416;24.598;2023-01-26T12:30:33;100160.59;;;4.38;100.00
8286;BME280;4181;43.416;24.598;2023-01-26T12:33:00;100164.34;;;4.30;100.00
8286;BME280;4181;43.416;24.598;2023-01-26T12:35:35;100158.50;;;4.40;100.00
8286;BME280;4181;43.416;24.598;2023-01-26T12:38:14;100155.56;;;4.48;100.00
8286;BME280;4181;43.416;24.598;2023-01-26T12:46:45;100162.84;;;4.54;100.00
8286;BME280;4181;43.416;24.598;2023-01-26T12:49:29;100165.94;;;4.64;100.00
8286;BME280;4181;43.416;24.598;2023-01-26T12:52:05;100153.25;;;4.58;100.00
8286;BME280;4181;43.416;24.598;2023-01-26T12:57:19;100162.22;;;4.52;100.00
8286;BME280;4181;43.416;24.598;2023-01-26T12:59:46;100175.34;;;4.42;100.00
8286;BME280;4181;43.416;24.598;2023-01-26T13:04:40;100151.41;;;4.52;100.00
8286;BME280;4181;43.416;24.598;2023-01-26T13:07:33;100144.09;;;4.65;100.00
8286;BME280;4181;43.416;24.598;2023-01-26T13:15:18;100130.47;;;4.91;100.00
8286;BME280;4181;43.416;24.598;2023-01-26T13:17:48;100129.81;;;4.96;100.00
8286;BME280;4181;43.416;24.598;2023-01-26T13:23:41;100110.06;;;5.02;100.00
8286;BME280;4181;43.416;24.598;2023-01-26T13:26:14;100112.59;;;4.97;100.00
8286;BME280;4181;43.416;24.598;2023-01-26T13:28:40;100127.59;;;4.86;100.00
8286;BME280;4181;43.416;24.598;2023-01-26T13:31:08;100120.13;;;4.82;100.00
8286;BME280;4181;43.416;24.598;2023-01-26T13:33:34;100118.59;;;4.92;100.00
8286;BME280;4181;43.416;24.598;2023-01-26T13:36:02;100125.47;;;4.95;100.00
8286;BME280;4181;43.416;24.598;2023-01-26T13:38:39;100118.78;;;4.97;100.00
8286;BME280;4181;43.416;24.598;2023-01-26T13:41:14;100117.13;;;5.03;100.00
8286;BME280;4181;43.416;24.598;2023-01-26T13:44:09;100119.00;;;4.96;100.00
8286;BME280;4181;43.416;24.598;2023-01-26T13:47:19;100116.56;;;4.88;100.00
8286;BME280;4181;43.416;24.598;2023-01-26T13:49:48;100109.47;;;4.93;100.00
8286;BME280;4181;43.416;24.598;2023-01-26T13:52:19;100105.69;;;5.01;100.00
8286;BME280;4181;43.416;24.598;2023-01-26T13:54:45;100102.38;;;4.99;100.00
8286;BME280;4181;43.416;24.598;2023-01-26T13:57:26;100097.97;;;5.04;100.00
8286;BME280;4181;43.416;24.598;2023-01-26T13:59:59;100085.66;;;5.15;100.00
8286;BME280;4181;43.416;24.598;2023-01-26T14:02:33;100080.63;;;5.18;100.00
8286;BME280;4181;43.416;24.598;2023-01-26T14:05:00;100092.53;;;5.11;100.00
8286;BME280;4181;43.416;24.598;2023-01-26T14:07:31;100096.03;;;5.18;100.00
8286;BME280;4181;43.416;24.598;2023-01-26T14:09:59;100089.78;;;5.17;100.00
8286;BME280;4181;43.416;24.598;2023-01-26T14:12:41;100082.69;;;5.23;100.00
8286;BME280;4181;43.416;24.598;2023-01-26T14:15:34;100087.69;;;5.19;100.00
8286;BME280;4181;43.416;24.598;2023-01-26T14:18:03;100093.09;;;5.19;100.00
8286;BME280;4181;43.416;24.598;2023-01-26T14:20:35;100082.50;;;5.18;100.00
8286;BME280;4181;43.416;24.598;2023-01-26T14:25:37;100086.56;;;4.96;100.00
8286;BME280;4181;43.416;24.598;2023-01-26T14:28:03;100074.81;;;4.84;100.00
8286;BME280;4181;43.416;24.598;2023-01-26T14:30:31;100060.41;;;4.90;100.00
8286;BME280;4181;43.416;24.598;2023-01-26T14:35:26;100055.88;;;4.84;100.00
8286;BME280;4181;43.416;24.598;2023-01-26T14:38:04;100051.25;;;4.91;100.00